Time;durP1;ratioP1;P1;durP2;ratioP2;P2;SDS_P1;SDS_P2;PMS_P1;PMS_P2;Temp;Humidity;BMP_temperature;BMP_pressure;BME280_temperature;BME280_humidity;BME280_pressure;Samples;Min_cycle;Max_cycle;Signal;HPM_P1;HPM_P2
2023/03/04 00:00:28;;;;;;;34.80;14.70;;;-2.60;99.90;;;;;;8198847;28;20096;-80
2023/03/04 00:04:29;;;;;;;40.55;17.23;;;-2.70;99.90;;;;;;8179323;28;20027;-79
2023/03/04 00:08:29;;;;;;;39.10;16.75;;;-2.60;99.90;;;;;;8202078;29;20054;-79
2023/03/04 00:12:30;;;;;;;35.67;15.65;;;-2.70;99.90;;;;;;8202606;28;20023;-80
2023/03/04 00:16:30;;;;;;;37.53;16.45;;;-2.80;99.90;;;;;;8195664;28;20027;-79
2023/03/04 00:20:31;;;;;;;43.55;16.45;;;-2.80;99.90;;;;;;8200529;29;20035;-79
2023/03/04 00:24:32;;;;;;;35.13;16.83;;;-2.80;99.90;;;;;;8195378;28;20019;-79
2023/03/04 00:28:32;;;;;;;32.55;14.25;;;-2.90;99.90;;;;;;8202787;28;20127;-79
2023/03/04 00:32:33;;;;;;;39.78;16.05;;;-3.00;99.90;;;;;;8202446;28;20035;-79
2023/03/04 00:36:33;;;;;;;38.95;15.13;;;-3.10;99.90;;;;;;8197591;28;20043;-79
2023/03/04 00:40:34;;;;;;;33.30;14.07;;;-3.20;99.90;;;;;;8200314;28;20502;-79
2023/03/04 00:44:34;;;;;;;38.17;16.77;;;-3.20;99.90;;;;;;8195881;28;20035;-77
2023/03/04 00:48:35;;;;;;;41.67;16.42;;;-3.10;99.90;;;;;;8202035;28;20019;-79
2023/03/04 00:52:35;;;;;;;36.17;15.00;;;-3.20;99.90;;;;;;8200491;29;20015;-79
2023/03/04 00:56:36;;;;;;;32.95;14.23;;;-3.20;99.90;;;;;;8195964;28;20051;-79
2023/03/04 01:00:36;;;;;;;35.03;14.38;;;-3.30;99.90;;;;;;8193765;28;20037;-79
2023/03/04 01:04:40;;;;;;;31.80;12.80;;;-3.20;99.90;;;;;;8204813;28;20107;-79
2023/03/04 01:08:41;;;;;;;36.65;15.43;;;-3.30;99.90;;;;;;8199106;28;20019;-79
2023/03/04 01:12:42;;;;;;;36.60;15.00;;;-3.40;99.90;;;;;;8199059;29;20055;-79
2023/03/04 01:16:42;;;;;;;41.53;15.82;;;-3.50;99.90;;;;;;8195005;28;20034;-79
2023/03/04 01:20:43;;;;;;;38.28;16.05;;;-3.50;99.90;;;;;;8199104;28;20035;-79
2023/03/04 01:24:44;;;;;;;33.78;15.10;;;-3.50;99.90;;;;;;8193204;28;20023;-79
2023/03/04 01:28:45;;;;;;;35.88;14.45;;;-3.40;99.90;;;;;;8199286;29;20026;-79
2023/03/04 01:32:45;;;;;;;38.92;15.02;;;-3.50;99.90;;;;;;8198556;29;20114;-79
2023/03/04 01:36:46;;;;;;;42.60;16.35;;;-3.50;99.90;;;;;;8196441;28;20039;-79
2023/03/04 01:40:48;;;;;;;36.28;15.73;;;-3.60;99.90;;;;;;8198243;28;20031;-79
2023/03/04 01:44:49;;;;;;;34.35;15.18;;;-3.60;99.90;;;;;;8195089;28;20585;-79
2023/03/04 01:48:50;;;;;;;37.63;17.13;;;-3.60;99.90;;;;;;8198644;28;20078;-79
2023/03/04 01:52:51;;;;;;;38.88;15.63;;;-3.70;99.90;;;;;;8198667;28;20039;-79
2023/03/04 01:56:52;;;;;;;40.42;15.25;;;-3.70;99.90;;;;;;8190585;28;20593;-79
2023/03/04 02:00:52;;;;;;;40.08;15.75;;;-3.70;99.90;;;;;;8186789;28;20453;-79
2023/03/04 02:04:53;;;;;;;33.47;15.30;;;-3.60;99.90;;;;;;8193652;28;20043;-79
2023/03/04 02:08:54;;;;;;;36.33;16.23;;;-3.50;99.90;;;;;;8197861;28;20035;-79
2023/03/04 02:12:54;;;;;;;36.92;14.90;;;-3.60;99.90;;;;;;8199350;28;20020;-79
2023/03/04 02:16:55;;;;;;;34.65;15.60;;;-3.70;99.90;;;;;;8197504;28;20024;-79
2023/03/04 02:20:56;;;;;;;38.28;15.10;;;-3.70;99.90;;;;;;8198867;28;20440;-79
2023/03/04 02:25:02;;;;;;;25.55;12.45;;;-3.80;99.90;;;;;;8191313;28;20030;-79
2023/03/04 02:29:03;;;;;;;37.45;14.40;;;-3.70;99.90;;;;;;8198029;29;20023;-79
2023/03/04 02:33:04;;;;;;;44.38;15.25;;;-3.70;99.90;;;;;;8198085;28;20034;-79
2023/03/04 02:37:05;;;;;;;37.00;14.65;;;-3.80;99.90;;;;;;8191654;28;20218;-79
2023/03/04 02:41:11;;;;;;;28.83;13.73;;;-3.90;99.90;;;;;;8197453;29;20034;-78
2023/03/04 02:45:48;;;;;;;34.08;14.00;;;-4.00;99.90;;;;;;8196115;28;20031;-79
2023/03/04 02:49:49;;;;;;;35.53;13.35;;;-3.80;99.90;;;;;;8143133;29;20689;-79
2023/03/04 02:53:49;;;;;;;39.75;15.27;;;-3.50;99.90;;;;;;8204700;28;20023;-79
2023/03/04 02:57:50;;;;;;;35.78;13.77;;;-3.40;99.90;;;;;;8193585;28;20038;-79
2023/03/04 03:01:51;;;;;;;31.80;12.48;;;-3.30;99.90;;;;;;8194615;29;20027;-77
2023/03/04 03:05:53;;;;;;;29.15;13.15;;;-3.30;99.90;;;;;;8194146;28;20496;-79
2023/03/04 03:09:53;;;;;;;28.45;13.27;;;-3.50;99.90;;;;;;8205093;28;20038;-79
2023/03/04 03:13:54;;;;;;;32.80;15.13;;;-3.60;99.90;;;;;;8203223;28;20624;-80
2023/03/04 03:17:54;;;;;;;31.40;14.90;;;-3.70;99.90;;;;;;8200825;28;20031;-79
2023/03/04 03:21:55;;;;;;;31.83;13.05;;;-3.80;99.90;;;;;;8195753;28;20058;-79
2023/03/04 03:25:55;;;;;;;35.30;14.55;;;-3.90;99.90;;;;;;8200530;28;20061;-79
2023/03/04 03:29:56;;;;;;;33.15;13.50;;;-4.00;99.90;;;;;;8202231;28;20038;-79
2023/03/04 03:33:57;;;;;;;28.13;13.40;;;-4.10;99.90;;;;;;8201602;28;20031;-79
2023/03/04 03:37:57;;;;;;;31.70;13.27;;;-4.20;99.90;;;;;;8201310;28;20054;-79
2023/03/04 03:41:58;;;;;;;30.23;12.65;;;-4.20;99.90;;;;;;8202683;28;20562;-79
2023/03/04 03:45:58;;;;;;;28.25;13.93;;;-4.20;99.90;;;;;;8200520;28;20110;-78
2023/03/04 03:49:59;;;;;;;28.05;12.30;;;-4.20;99.90;;;;;;8201358;28;20031;-79
2023/03/04 03:53:59;;;;;;;32.67;12.45;;;-4.30;99.90;;;;;;8201517;28;20030;-79
2023/03/04 03:58:00;;;;;;;26.92;11.45;;;-4.40;99.90;;;;;;8197631;28;20121;-79
2023/03/04 04:02:00;;;;;;;30.58;13.23;;;-4.30;99.90;;;;;;8185001;28;20602;-79
2023/03/04 04:06:01;;;;;;;32.13;12.82;;;-4.20;99.90;;;;;;8192347;28;20089;-79
2023/03/04 04:10:03;;;;;;;32.03;13.57;;;-4.10;99.90;;;;;;8189159;28;20027;-79
2023/03/04 04:14:03;;;;;;;28.92;12.18;;;-4.00;99.90;;;;;;8200076;28;20032;-79
2023/03/04 04:18:05;;;;;;;41.45;14.38;;;-4.00;99.90;;;;;;8201492;28;20681;-79
2023/03/04 04:22:07;;;;;;;34.25;13.27;;;-3.90;99.90;;;;;;8187064;28;20082;-77
2023/03/04 04:26:08;;;;;;;34.28;13.63;;;-3.90;99.90;;;;;;8174135;29;20043;-83
2023/03/04 04:30:09;;;;;;;32.90;13.32;;;-4.00;99.90;;;;;;8171039;29;20523;-79
2023/03/04 04:34:09;;;;;;;31.58;12.65;;;-4.20;99.90;;;;;;8176652;28;20032;-79
2023/03/04 04:38:10;;;;;;;30.83;14.82;;;-4.40;99.90;;;;;;8181512;29;20024;-79
2023/03/04 04:42:11;;;;;;;28.27;13.05;;;-4.50;99.90;;;;;;8181220;28;20028;-79
2023/03/04 04:46:11;;;;;;;31.20;13.57;;;-4.50;99.90;;;;;;8181143;28;20038;-79
2023/03/04 04:50:12;;;;;;;31.73;14.05;;;-4.40;99.90;;;;;;8182305;29;20579;-80
2023/03/04 04:54:13;;;;;;;29.17;12.63;;;-4.40;99.90;;;;;;8186704;28;20042;-79
2023/03/04 04:58:14;;;;;;;29.08;11.55;;;-4.50;99.90;;;;;;8182052;28;20504;-80
2023/03/04 05:02:15;;;;;;;34.10;13.90;;;-4.50;99.90;;;;;;8170275;28;20123;-79
2023/03/04 05:06:15;;;;;;;37.63;13.60;;;-4.50;99.90;;;;;;8167963;29;20039;-79
2023/03/04 05:10:16;;;;;;;22.00;12.23;;;-4.50;99.90;;;;;;8180510;29;20520;-80
2023/03/04 05:14:17;;;;;;;33.85;13.13;;;-4.60;99.90;;;;;;8191889;28;20369;-79
2023/03/04 05:18:18;;;;;;;25.73;13.15;;;-4.50;99.90;;;;;;8178998;28;20082;-79
2023/03/04 05:22:18;;;;;;;23.98;11.98;;;-4.50;99.90;;;;;;8181936;28;20055;-79
2023/03/04 05:26:19;;;;;;;30.00;10.10;;;-4.50;99.90;;;;;;8174175;28;20016;-80
2023/03/04 05:30:19;;;;;;;35.20;14.75;;;-4.50;99.90;;;;;;8184159;28;20488;-80
2023/03/04 05:34:20;;;;;;;32.78;13.88;;;-4.50;99.90;;;;;;8191615;28;20408;-81
2023/03/04 05:38:21;;;;;;;30.80;14.10;;;-4.60;99.90;;;;;;8195209;28;20060;-81
2023/03/04 05:42:21;;;;;;;22.10;10.20;;;-4.50;99.90;;;;;;8188088;28;20381;-80
2023/03/04 05:46:24;;;;;;;29.75;12.55;;;-4.70;99.90;;;;;;8193272;28;20023;-81
2023/03/04 05:50:25;;;;;;;31.83;12.48;;;-4.60;99.90;;;;;;8194110;29;20605;-80
2023/03/04 05:54:26;;;;;;;29.05;10.82;;;-4.40;99.90;;;;;;8199497;28;20057;-80
2023/03/04 05:58:26;;;;;;;25.40;11.15;;;-4.30;99.90;;;;;;8194966;28;20031;-81
2023/03/04 06:02:27;;;;;;;24.58;11.95;;;-3.90;99.90;;;;;;8180908;28;20058;-81
2023/03/04 06:06:27;;;;;;;27.73;11.82;;;-4.00;99.90;;;;;;8185363;28;20039;-80
2023/03/04 06:10:28;;;;;;;35.30;14.70;;;-3.90;99.90;;;;;;8183682;28;20582;-80
2023/03/04 06:14:28;;;;;;;27.90;13.65;;;-4.00;99.90;;;;;;8193804;28;20116;-81
2023/03/04 06:18:29;;;;;;;33.03;15.15;;;-4.10;99.90;;;;;;8193714;28;20035;-80
2023/03/04 06:22:29;;;;;;;36.42;14.55;;;-4.20;99.90;;;;;;8200054;28;20034;-81
2023/03/04 06:26:30;;;;;;;40.60;15.40;;;-4.10;99.90;;;;;;8199250;28;20030;-80
2023/03/04 06:30:30;;;;;;;46.38;14.77;;;-4.20;99.90;;;;;;8203447;29;20020;-80
2023/03/04 06:34:32;;;;;;;31.90;13.40;;;-4.20;99.90;;;;;;8190363;28;20066;-81
2023/03/04 06:38:33;;;;;;;31.30;15.13;;;-4.20;99.90;;;;;;8190965;28;20567;-81
2023/03/04 06:42:34;;;;;;;35.42;14.40;;;-4.10;99.90;;;;;;8193239;29;20039;-81
2023/03/04 06:46:35;;;;;;;31.50;15.85;;;-4.10;99.90;;;;;;8194447;28;20551;-81
2023/03/04 06:50:36;;;;;;;35.63;17.27;;;-3.80;99.90;;;;;;8174431;28;20032;-82
2023/03/04 06:54:36;;;;;;;40.03;17.77;;;-3.50;99.90;;;;;;8164988;29;20032;-82
2023/03/04 06:58:37;;;;;;;51.20;20.30;;;-3.50;99.90;;;;;;8183305;29;20035;-82
2023/03/04 07:02:37;;;;;;;40.15;18.67;;;-3.40;99.90;;;;;;8168344;28;20032;-82
2023/03/04 07:06:38;;;;;;;47.33;20.85;;;-3.20;99.90;;;;;;8171860;29;20115;-81
2023/03/04 07:10:38;;;;;;;51.00;21.88;;;-3.10;99.90;;;;;;8176152;29;20031;-81
2023/03/04 07:14:39;;;;;;;53.78;22.73;;;-2.80;99.90;;;;;;8183829;28;20031;-81
2023/03/04 07:18:40;;;;;;;35.97;15.93;;;-2.30;99.90;;;;;;8172431;28;20028;-80
2023/03/04 07:22:40;;;;;;;45.08;20.77;;;-2.00;99.90;;;;;;8175792;28;20032;-81
2023/03/04 07:26:41;;;;;;;54.25;21.95;;;-1.70;99.90;;;;;;8163979;29;20019;-81
2023/03/04 07:30:42;;;;;;;53.67;22.38;;;-1.80;99.90;;;;;;8179593;28;20039;-81
2023/03/04 07:34:42;;;;;;;50.90;22.10;;;-1.80;99.90;;;;;;8158870;29;20036;-81
2023/03/04 07:38:45;;;;;;;44.70;19.60;;;-1.70;99.90;;;;;;8165385;29;20023;-81
2023/03/04 07:42:53;;;;;;;49.90;18.88;;;-1.50;99.90;;;;;;8162710;29;20056;-81
2023/03/04 07:46:54;;;;;;;45.97;20.08;;;-1.50;99.90;;;;;;8163060;29;20028;-81
2023/03/04 07:51:16;;;;;;;41.88;19.70;;;-1.40;99.90;;;;;;8164323;29;20126;-80
2023/03/04 07:55:16;;;;;;;39.70;18.63;;;-1.10;99.90;;;;;;8171105;29;20047;-81
2023/03/04 07:59:17;;;;;;;48.50;20.08;;;-1.10;99.90;;;;;;8181671;28;20039;-81
2023/03/04 08:03:17;;;;;;;50.13;20.55;;;-0.90;99.90;;;;;;8169979;28;20023;-81
2023/03/04 08:07:18;;;;;;;47.85;20.77;;;-0.80;99.90;;;;;;8180884;28;20118;-81
2023/03/04 08:11:20;;;;;;;51.58;22.80;;;-0.50;99.90;;;;;;8197312;28;20221;-81
2023/03/04 08:15:20;;;;;;;59.65;24.65;;;0.10;99.90;;;;;;8173724;29;20027;-81
2023/03/04 08:19:21;;;;;;;46.78;20.52;;;0.30;99.90;;;;;;8168399;29;20035;-81
2023/03/04 08:23:22;;;;;;;46.10;22.00;;;0.40;99.90;;;;;;8178442;29;20034;-81
2023/03/04 08:27:22;;;;;;;47.45;21.30;;;0.90;99.90;;;;;;8198309;28;20019;-81
2023/03/04 08:31:23;;;;;;;51.83;24.00;;;0.90;99.90;;;;;;8198416;28;20031;-81
2023/03/04 08:35:24;;;;;;;50.22;20.73;;;0.90;99.90;;;;;;8188891;28;20038;-81
2023/03/04 08:39:25;;;;;;;52.13;23.80;;;1.30;99.90;;;;;;8190129;29;20511;-81
2023/03/04 08:43:26;;;;;;;53.17;24.25;;;1.40;99.90;;;;;;8200656;28;20054;-81
2023/03/04 08:47:26;;;;;;;49.00;22.33;;;1.60;99.90;;;;;;8192746;28;20031;-81
2023/03/04 08:51:27;;;;;;;48.97;21.20;;;1.80;99.90;;;;;;8184328;28;20024;-80
2023/03/04 08:55:27;;;;;;;56.40;23.25;;;1.90;99.90;;;;;;8184222;28;20020;-81
2023/03/04 08:59:28;;;;;;;63.15;26.33;;;2.00;99.90;;;;;;8186681;28;20027;-81
2023/03/04 09:03:30;;;;;;;60.15;25.40;;;2.20;99.90;;;;;;8171069;29;20054;-79
2023/03/04 09:07:30;;;;;;;53.78;22.95;;;2.30;99.90;;;;;;8188464;28;20476;-81
2023/03/04 09:11:31;;;;;;;56.63;26.38;;;2.60;99.90;;;;;;8199602;28;20023;-80
2023/03/04 09:15:36;;;;;;;66.45;25.58;;;2.90;99.90;;;;;;8185400;28;20407;-80
2023/03/04 09:19:36;;;;;;;44.45;20.55;;;3.00;99.90;;;;;;8189078;28;20035;-81
2023/03/04 09:23:38;;;;;;;54.97;24.60;;;3.20;99.90;;;;;;8178975;29;20079;-81
2023/03/04 09:27:39;;;;;;;58.40;24.70;;;3.30;99.90;;;;;;8181420;28;20111;-81
2023/03/04 09:31:39;;;;;;;59.03;22.60;;;3.70;99.90;;;;;;8182358;28;20023;-80
2023/03/04 09:35:40;;;;;;;67.20;24.92;;;3.90;99.90;;;;;;8170609;28;20039;-80
2023/03/04 09:39:41;;;;;;;54.47;25.52;;;4.30;99.90;;;;;;8188202;29;20130;-80
2023/03/04 09:43:43;;;;;;;56.53;26.42;;;4.40;99.90;;;;;;8191109;28;20027;-79
2023/03/04 09:47:45;;;;;;;23.67;10.45;;;4.60;99.90;;;;;;8183152;28;20098;-81
2023/03/04 09:52:17;;;;;;;56.97;24.08;;;5.00;99.90;;;;;;8192264;28;20067;-82
2023/03/04 09:56:18;;;;;;;37.35;15.13;;;5.30;99.90;;;;;;8198973;28;20098;-82
2023/03/04 10:00:21;;;;;;;45.72;19.98;;;5.40;99.90;;;;;;8172906;29;20020;-82
2023/03/04 10:04:48;;;;;;;57.65;21.88;;;5.60;99.90;;;;;;8179406;29;20031;-82
2023/03/04 10:09:15;;;;;;;36.55;16.42;;;5.80;99.90;;;;;;8178007;29;20039;-82
2023/03/04 10:13:26;;;;;;;51.45;21.67;;;6.10;99.90;;;;;;8167395;29;20028;-82
2023/03/04 10:17:44;;;;;;;51.13;22.13;;;6.40;99.90;;;;;;8183265;28;20023;-82
2023/03/04 10:21:46;;;;;;;50.25;22.50;;;6.90;99.90;;;;;;8191745;29;20046;-82
2023/03/04 10:25:52;;;;;;;50.53;21.13;;;7.70;99.90;;;;;;8189280;28;20503;-82
2023/03/04 10:29:53;;;;;;;39.50;16.63;;;8.50;99.90;;;;;;8166255;29;20036;-82
2023/03/04 10:33:53;;;;;;;46.92;19.67;;;8.30;99.90;;;;;;8167497;29;20881;-83
2023/03/04 10:37:54;;;;;;;26.35;10.65;;;8.80;99.90;;;;;;8186784;28;20039;-82
2023/03/04 10:42:14;;;;;;;23.35;10.55;;;9.00;99.90;;;;;;8176975;29;20039;-81
2023/03/04 10:46:15;;;;;;;30.02;12.40;;;8.50;99.90;;;;;;8193004;28;20408;-82
2023/03/04 10:50:25;;;;;;;40.03;17.15;;;8.50;99.90;;;;;;8177745;28;20032;-81
2023/03/04 10:54:41;;;;;;;37.65;17.95;;;9.10;99.90;;;;;;8180435;28;20115;-82
2023/03/04 10:58:42;;;;;;;44.70;18.33;;;10.20;99.90;;;;;;8168069;29;20039;-82
2023/03/04 11:02:44;;;;;;;41.65;16.15;;;11.00;99.90;;;;;;8185490;29;20160;-82
2023/03/04 11:06:45;;;;;;;40.95;16.70;;;10.40;99.90;;;;;;8177520;29;20053;-82
2023/03/04 11:10:46;;;;;;;47.10;18.75;;;10.80;99.90;;;;;;8182101;28;20039;-81
2023/03/04 11:14:51;;;;;;;36.70;17.65;;;12.00;99.90;;;;;;8196271;28;20031;-82
2023/03/04 11:18:54;;;;;;;39.90;19.77;;;12.50;99.90;;;;;;8184616;29;20515;-81
2023/03/04 11:22:58;;;;;;;41.20;17.92;;;11.40;99.90;;;;;;8179277;29;20040;-80
2023/03/04 11:27:07;;;;;;;42.78;18.63;;;10.00;99.90;;;;;;8187550;29;20614;-81
2023/03/04 11:31:28;;;;;;;37.33;18.15;;;10.60;99.90;;;;;;8176613;29;20023;-81
2023/03/04 11:35:51;;;;;;;;;;;11.80;99.90;;;;;;8178983;28;20080;-81
2023/03/04 11:40:07;;;;;;;38.70;18.83;;;12.10;99.90;;;;;;8154104;29;19925;-81
2023/03/04 11:44:11;;;;;;;30.88;14.23;;;12.60;99.90;;;;;;8173073;28;20034;-82
2023/03/04 11:48:25;;;;;;;25.27;11.85;;;13.40;99.90;;;;;;8169306;28;20035;-81
2023/03/04 11:52:41;;;;;;;39.22;17.95;;;11.80;99.90;;;;;;8154760;29;20110;-79
2023/03/04 11:56:46;;;;;;;34.10;16.17;;;12.40;99.90;;;;;;8174237;28;20064;-80
2023/03/04 12:01:09;;;;;;;36.90;15.98;;;11.00;99.90;;;;;;8155515;29;20123;-79
2023/03/04 12:05:29;;;;;;;29.58;13.65;;;10.30;99.90;;;;;;8185906;28;20031;-81
2023/03/04 12:09:42;;;;;;;28.35;13.27;;;9.80;99.90;;;;;;8172370;29;20031;-81
2023/03/04 12:14:22;;;;;;;37.10;15.73;;;11.00;99.90;;;;;;8181720;29;20038;-80
2023/03/04 12:18:39;;;;;;;20.30;10.48;;;11.40;99.90;;;;;;8165816;29;20656;-81
2023/03/04 12:23:17;;;;;;;31.70;15.32;;;12.40;99.90;;;;;;8188396;28;20035;-81
2023/03/04 12:27:44;;;;;;;37.60;17.63;;;11.50;99.90;;;;;;8166706;29;20078;-83
2023/03/04 12:31:45;;;;;;;33.17;13.05;;;12.50;99.90;;;;;;8180854;29;20035;-82
2023/03/04 12:35:59;;;;;;;31.05;15.57;;;10.50;99.90;;;;;;8287585;23;20079;-80
2023/03/04 12:40:24;;;;;;;18.90;7.63;;;9.70;99.90;;;;;;8198450;28;20031;-80
2023/03/04 12:44:25;;;;;;;22.80;8.77;;;11.10;99.90;;;;;;8207042;28;20035;-78
2023/03/04 12:48:36;;;;;;;29.88;14.35;;;10.40;99.90;;;;;;8206157;28;20403;-78
2023/03/04 12:52:55;;;;;;;31.45;13.38;;;9.00;99.90;;;;;;8208082;28;20035;-79
2023/03/04 12:57:05;;;;;;;21.77;10.50;;;8.80;99.90;;;;;;8205071;28;20034;-78
2023/03/04 13:01:15;;;;;;;33.00;13.70;;;9.00;99.90;;;;;;8183806;28;20027;-78
2023/03/04 13:05:27;;;;;;;2.97;1.88;;;8.90;99.90;;;;;;8208107;28;20031;-78
2023/03/04 13:09:39;;;;;;;24.45;11.70;;;9.70;99.90;;;;;;8210365;28;20026;-80
2023/03/04 13:13:41;;;;;;;30.13;13.45;;;10.20;99.90;;;;;;8210077;28;20458;-80
2023/03/04 13:17:50;;;;;;;17.02;10.23;;;10.90;99.90;;;;;;8207741;28;20050;-79
2023/03/04 13:21:53;;;;;;;22.00;10.38;;;12.90;99.90;;;;;;8216915;28;20027;-78
2023/03/04 13:25:56;;;;;;;18.83;9.73;;;9.80;99.90;;;;;;8194011;28;20109;-76
2023/03/04 13:29:57;;;;;;;25.00;12.18;;;8.70;99.90;;;;;;8206007;28;20525;-78
2023/03/04 13:33:59;;;;;;;28.92;12.80;;;8.90;99.90;;;;;;8205147;28;20036;-79
2023/03/04 13:38:20;;;;;;;32.00;13.20;;;9.10;99.90;;;;;;8198090;28;20562;-79
2023/03/04 13:42:41;;;;;;;27.85;11.68;;;9.40;99.90;;;;;;8207848;28;20620;-78
2023/03/04 13:46:42;;;;;;;16.65;8.25;;;9.20;99.90;;;;;;8196944;28;20114;-78
2023/03/04 13:50:48;;;;;;;18.00;9.07;;;9.30;99.90;;;;;;8184518;28;20613;-76
2023/03/04 13:54:48;;;;;;;8.73;4.78;;;9.00;99.90;;;;;;8201183;28;20034;-77
2023/03/04 13:59:00;;;;;;;30.35;12.38;;;8.70;99.90;;;;;;8188166;28;20095;-79
2023/03/04 14:03:18;;;;;;;19.55;8.90;;;9.10;99.90;;;;;;8217210;28;20023;-79
2023/03/04 14:07:31;;;;;;;27.00;9.93;;;9.60;99.90;;;;;;8213485;28;20109;-78
2023/03/04 14:11:41;;;;;;;30.45;13.10;;;9.30;99.90;;;;;;8204862;28;20038;-78
2023/03/04 14:15:52;;;;;;;23.60;10.05;;;8.80;99.90;;;;;;8199623;28;20030;-77
2023/03/04 14:19:53;;;;;;;9.15;3.88;;;8.70;99.90;;;;;;8220714;28;20089;-78
2023/03/04 14:24:03;;;;;;;24.25;8.77;;;8.70;99.90;;;;;;8205073;28;20492;-77
2023/03/04 14:28:03;;;;;;;;;;;8.90;99.90;;;;;;8183275;28;20492;-77
2023/03/04 14:32:05;;;;;;;23.10;10.77;;;8.50;99.90;;;;;;8192302;28;19949;-77
2023/03/04 14:36:12;;;;;;;27.48;12.43;;;8.40;99.90;;;;;;8179690;28;20328;-78
2023/03/04 14:40:25;;;;;;;10.02;5.55;;;8.30;99.90;;;;;;8191201;28;20059;-77
2023/03/04 14:44:38;;;;;;;22.67;9.40;;;8.60;99.90;;;;;;8191046;28;20023;-78
2023/03/04 14:48:43;;;;;;;21.42;7.78;;;8.10;99.90;;;;;;8178744;28;20019;-77
2023/03/04 14:52:53;;;;;;;17.13;8.13;;;7.80;99.90;;;;;;8183102;28;20031;-78
2023/03/04 14:56:53;;;;;;;20.88;9.07;;;7.30;99.90;;;;;;8207428;28;20579;-78
2023/03/04 15:01:22;;;;;;;17.45;5.72;;;7.10;99.90;;;;;;8202594;28;20035;-78
2023/03/04 15:05:30;;;;;;;9.02;3.72;;;6.80;99.90;;;;;;8197913;28;20023;-79
2023/03/04 15:09:30;;;;;;;6.63;2.42;;;6.60;99.90;;;;;;8199625;28;20094;-76
2023/03/04 15:13:43;;;;;;;7.75;3.40;;;6.40;99.90;;;;;;8185333;28;21654;-77
2023/03/04 15:17:44;;;;;;;11.98;4.50;;;6.10;99.90;;;;;;8199573;28;20020;-77
2023/03/04 15:21:44;;;;;;;13.73;6.00;;;5.70;99.90;;;;;;8199955;28;20039;-78
2023/03/04 15:25:45;;;;;;;11.90;3.92;;;5.50;99.90;;;;;;8184441;28;20407;-77
2023/03/04 15:29:45;;;;;;;16.17;6.15;;;5.20;99.90;;;;;;8200038;28;20046;-77
2023/03/04 15:33:46;;;;;;;5.78;2.90;;;4.70;99.90;;;;;;8205849;28;20038;-77
2023/03/04 15:37:49;;;;;;;7.55;3.55;;;4.40;99.90;;;;;;8207988;28;20039;-77
2023/03/04 15:41:49;;;;;;;18.88;7.07;;;4.30;99.90;;;;;;8204205;28;20027;-78
2023/03/04 15:45:51;;;;;;;19.42;8.07;;;4.20;99.90;;;;;;8200013;28;20033;-77
2023/03/04 15:49:52;;;;;;;13.73;6.30;;;4.30;99.90;;;;;;8185661;28;20031;-77
2023/03/04 15:53:55;;;;;;;5.68;2.45;;;4.20;99.90;;;;;;8177307;28;20042;-78
2023/03/04 15:57:59;;;;;;;6.80;4.13;;;4.00;99.90;;;;;;8180481;28;20034;-79
2023/03/04 16:01:59;;;;;;;14.45;6.32;;;3.50;99.90;;;;;;8197538;28;20027;-76
2023/03/04 16:06:00;;;;;;;11.10;5.53;;;3.10;99.90;;;;;;8215366;28;20118;-76
2023/03/04 16:10:26;;;;;;;1.52;1.15;;;2.90;99.90;;;;;;8214998;28;20027;-78
2023/03/04 16:14:27;;;;;;;9.70;4.65;;;2.80;99.90;;;;;;8195002;28;20079;-77
2023/03/04 16:18:27;;;;;;;12.35;6.40;;;2.60;99.90;;;;;;8196935;28;20169;-77
2023/03/04 16:22:28;;;;;;;13.02;5.40;;;2.40;99.90;;;;;;8182858;28;20035;-78
2023/03/04 16:26:30;;;;;;;10.10;6.18;;;2.20;99.90;;;;;;8176793;28;20428;-77
2023/03/04 16:30:30;;;;;;;16.95;7.05;;;2.00;99.90;;;;;;8179391;28;20027;-78
2023/03/04 16:34:31;;;;;;;28.25;7.15;;;1.80;99.90;;;;;;8183505;28;20161;-79
2023/03/04 16:38:32;;;;;;;10.63;3.58;;;1.50;99.90;;;;;;8182234;28;20031;-78
2023/03/04 16:42:32;;;;;;;15.43;7.03;;;1.40;99.90;;;;;;8185680;28;20027;-77
2023/03/04 16:46:33;;;;;;;14.48;5.78;;;1.20;99.90;;;;;;8178252;28;20799;-79
2023/03/04 16:50:35;;;;;;;2.58;1.90;;;1.00;99.90;;;;;;8178917;28;20030;-78
2023/03/04 16:54:36;;;;;;;21.15;8.57;;;0.90;99.90;;;;;;8190680;28;20033;-78
2023/03/04 16:58:36;;;;;;;13.82;6.32;;;0.80;99.90;;;;;;8197793;28;20030;-77
2023/03/04 17:02:37;;;;;;;39.65;15.00;;;0.60;99.90;;;;;;8204146;28;20034;-77
2023/03/04 17:06:38;;;;;;;18.05;7.72;;;0.50;99.90;;;;;;8212835;28;20539;-79
2023/03/04 17:10:39;;;;;;;25.13;10.90;;;0.50;99.90;;;;;;8218320;28;20049;-78
2023/03/04 17:14:39;;;;;;;14.27;7.05;;;0.40;99.90;;;;;;8219064;28;20035;-79
2023/03/04 17:18:40;;;;;;;16.33;8.57;;;0.40;99.90;;;;;;8197785;28;20038;-79
2023/03/04 17:22:42;;;;;;;32.05;12.05;;;0.30;99.90;;;;;;8215736;28;20022;-78
2023/03/04 17:26:42;;;;;;;22.50;9.77;;;0.20;99.90;;;;;;8203195;28;20030;-78
2023/03/04 17:30:43;;;;;;;31.00;10.10;;;0.00;99.90;;;;;;8198918;28;20402;-79
2023/03/04 17:34:43;;;;;;;17.65;7.13;;;-0.10;99.90;;;;;;8206797;28;20496;-79
2023/03/04 17:38:44;;;;;;;13.07;6.22;;;-0.30;99.90;;;;;;8205925;28;20028;-79
2023/03/04 17:42:45;;;;;;;32.85;13.13;;;-0.40;99.90;;;;;;8210408;28;20035;-80
2023/03/04 17:46:49;;;;;;;32.08;12.45;;;-0.60;99.90;;;;;;8216069;28;20085;-80
2023/03/04 17:50:51;;;;;;;36.10;12.43;;;-0.60;99.90;;;;;;8226157;28;20073;-80
2023/03/04 17:54:51;;;;;;;18.60;8.10;;;-0.60;99.90;;;;;;8202470;28;20039;-80
2023/03/04 17:58:52;;;;;;;34.10;13.60;;;-0.60;99.90;;;;;;8199871;28;20059;-80
2023/03/04 18:02:52;;;;;;;35.22;14.27;;;-0.50;99.90;;;;;;8205381;28;20039;-80
2023/03/04 18:06:53;;;;;;;36.15;13.30;;;-0.50;99.90;;;;;;8209626;28;20015;-80
2023/03/04 18:10:53;;;;;;;15.27;8.60;;;-0.60;99.90;;;;;;8191315;28;20584;-79
2023/03/04 18:14:54;;;;;;;31.20;13.75;;;-0.40;99.90;;;;;;8215422;28;20046;-82
2023/03/04 18:18:57;;;;;;;25.83;12.05;;;-0.40;99.90;;;;;;8223602;28;20061;-80
2023/03/04 18:22:57;;;;;;;41.10;14.02;;;-0.30;99.90;;;;;;8221585;28;20073;-79
2023/03/04 18:26:58;;;;;;;32.88;12.50;;;-0.20;99.90;;;;;;8225954;28;20019;-79
2023/03/04 18:30:59;;;;;;;32.08;12.40;;;-0.10;99.90;;;;;;8213765;28;20035;-80
2023/03/04 18:35:01;;;;;;;13.65;6.40;;;-0.10;99.90;;;;;;8202010;28;20043;-80
2023/03/04 18:39:04;;;;;;;30.35;10.80;;;0.00;99.90;;;;;;8200553;28;20062;-79
2023/03/04 18:43:04;;;;;;;27.42;11.90;;;0.00;99.90;;;;;;8208095;28;20081;-80
2023/03/04 18:47:05;;;;;;;29.45;12.40;;;0.10;99.90;;;;;;8202356;28;20027;-80
2023/03/04 18:51:06;;;;;;;22.23;10.18;;;0.20;99.90;;;;;;8191671;28;20050;-80
2023/03/04 18:55:07;;;;;;;22.77;11.77;;;0.30;99.90;;;;;;8192506;28;20039;-80
2023/03/04 18:59:15;;;;;;;15.15;6.32;;;0.30;99.90;;;;;;8190817;28;20488;-79
2023/03/04 19:03:15;;;;;;;7.10;3.63;;;0.40;99.90;;;;;;8202785;28;20114;-80
2023/03/04 19:07:16;;;;;;;34.65;12.05;;;0.50;99.90;;;;;;8205784;28;20035;-79
2023/03/04 19:11:16;;;;;;;24.88;9.88;;;0.50;99.90;;;;;;8224228;28;20130;-80
2023/03/04 19:15:17;;;;;;;27.75;11.45;;;0.60;99.90;;;;;;8221060;28;20065;-80
2023/03/04 19:19:18;;;;;;;31.60;11.75;;;0.60;99.90;;;;;;8215038;28;20042;-79
2023/03/04 19:23:18;;;;;;;23.75;10.35;;;0.70;99.90;;;;;;8221355;28;20038;-79
2023/03/04 19:27:19;;;;;;;18.10;8.20;;;0.60;99.90;;;;;;8202718;28;20110;-79
2023/03/04 19:31:19;;;;;;;32.72;12.02;;;0.60;99.90;;;;;;8218935;28;20026;-79
2023/03/04 19:35:20;;;;;;;11.93;4.90;;;0.50;99.90;;;;;;8191841;28;20031;-78
2023/03/04 19:39:20;;;;;;;26.60;10.52;;;0.60;99.90;;;;;;8211731;28;20652;-78
2023/03/04 19:43:21;;;;;;;24.25;9.95;;;0.70;99.90;;;;;;8185554;28;20070;-79
2023/03/04 19:47:21;;;;;;;27.15;11.00;;;0.70;99.90;;;;;;8212808;28;20145;-76
2023/03/04 19:51:27;;;;;;;26.42;10.43;;;0.80;99.90;;;;;;8206618;28;20500;-79
2023/03/04 19:55:28;;;;;;;31.83;10.77;;;0.70;99.90;;;;;;8212197;28;20031;-79
2023/03/04 19:59:29;;;;;;;25.70;9.80;;;0.80;99.90;;;;;;8208155;28;20031;-78
2023/03/04 20:03:29;;;;;;;33.97;11.40;;;0.80;99.90;;;;;;8213749;28;20027;-78
2023/03/04 20:07:30;;;;;;;15.25;5.97;;;0.90;99.90;;;;;;8205166;28;20472;-79
2023/03/04 20:11:31;;;;;;;14.75;5.97;;;0.80;99.90;;;;;;8210699;28;20046;-78
2023/03/04 20:15:33;;;;;;;25.20;10.05;;;0.50;99.90;;;;;;8204955;28;20395;-79
2023/03/04 20:19:34;;;;;;;14.75;6.53;;;0.60;99.90;;;;;;8204541;28;20057;-78
2023/03/04 20:23:35;;;;;;;21.77;8.40;;;0.60;99.90;;;;;;8202428;28;20023;-78
2023/03/04 20:27:35;;;;;;;18.20;7.90;;;0.70;99.90;;;;;;8210656;28;20403;-79
2023/03/04 20:31:37;;;;;;;30.40;11.68;;;0.60;99.90;;;;;;8210144;28;20050;-78
2023/03/04 20:35:39;;;;;;;22.98;8.77;;;0.60;99.90;;;;;;8209862;28;20111;-79
2023/03/04 20:39:40;;;;;;;28.77;11.05;;;0.60;99.90;;;;;;8202445;28;20035;-78
2023/03/04 20:43:40;;;;;;;28.88;11.27;;;0.80;99.90;;;;;;8201586;28;20023;-79
2023/03/04 20:47:41;;;;;;;27.88;9.75;;;0.70;99.90;;;;;;8195331;28;20531;-78